Time;durP1;ratioP1;P1;durP2;ratioP2;P2;SDS_P1;SDS_P2;PMS_P1;PMS_P2;Temp;Humidity;BMP_temperature;BMP_pressure;BME280_temperature;BME280_humidity;BME280_pressure;Samples;Min_cycle;Max_cycle;Signal;HPM_P1;HPM_P2
2023/05/02 00:01:03;;;;;;;11.40;5.30;;;9.70;99.90;;;;;;5059255;28;20501;-59
2023/05/02 00:03:31;;;;;;;9.32;3.85;;;9.80;99.90;;;;;;5059245;28;20443;-58
2023/05/02 00:05:56;;;;;;;10.18;4.90;;;9.30;99.90;;;;;;5059924;28;20071;-58
2023/05/02 00:08:22;;;;;;;11.48;4.20;;;9.30;99.90;;;;;;5058733;28;20576;-58
2023/05/02 00:10:48;;;;;;;13.48;4.25;;;9.60;99.90;;;;;;5060149;28;20047;-58
2023/05/02 00:13:14;;;;;;;16.80;4.35;;;9.40;99.90;;;;;;5058488;28;20496;-58
2023/05/02 00:15:39;;;;;;;13.73;3.95;;;9.40;99.90;;;;;;5045754;28;20052;-58
2023/05/02 00:18:05;;;;;;;9.75;3.72;;;9.40;99.90;;;;;;5038930;28;20479;-58
2023/05/02 00:20:31;;;;;;;13.73;4.50;;;9.50;99.90;;;;;;5039450;28;20083;-57
2023/05/02 00:22:56;;;;;;;13.13;3.78;;;9.70;99.90;;;;;;5039384;28;20595;-57
2023/05/02 00:25:22;;;;;;;9.15;3.53;;;9.70;99.90;;;;;;5038648;28;20048;-58
2023/05/02 00:27:49;;;;;;;14.25;4.10;;;9.60;99.90;;;;;;5039936;28;20067;-57
2023/05/02 00:30:15;;;;;;;8.98;3.10;;;9.50;99.90;;;;;;5038045;28;20101;-57
2023/05/02 00:32:41;;;;;;;14.55;4.13;;;9.70;99.90;;;;;;5040007;28;20049;-57
2023/05/02 00:35:07;;;;;;;13.63;3.58;;;9.70;99.90;;;;;;5038451;28;20056;-57
2023/05/02 00:37:33;;;;;;;14.50;4.10;;;9.70;99.90;;;;;;5039262;28;20042;-58
2023/05/02 00:39:59;;;;;;;10.45;3.60;;;9.40;99.90;;;;;;5038895;28;20096;-58
2023/05/02 00:42:24;;;;;;;15.35;4.55;;;9.50;99.90;;;;;;5052748;28;20086;-58
2023/05/02 00:44:50;;;;;;;11.05;4.25;;;9.70;99.90;;;;;;5059267;28;20079;-57
2023/05/02 00:47:16;;;;;;;11.70;4.10;;;9.60;99.90;;;;;;5057631;28;20078;-58
2023/05/02 00:49:42;;;;;;;12.15;4.32;;;9.50;99.90;;;;;;5059999;28;20056;-57
2023/05/02 00:52:08;;;;;;;11.45;4.32;;;9.70;99.90;;;;;;5058022;28;20041;-57
2023/05/02 00:54:37;;;;;;;11.45;3.70;;;9.50;99.90;;;;;;5058456;28;20041;-57
2023/05/02 00:57:02;;;;;;;14.30;4.60;;;9.50;99.90;;;;;;5058670;28;20087;-57
2023/05/02 00:59:28;;;;;;;16.52;5.43;;;9.40;99.90;;;;;;5057979;28;20045;-57
2023/05/02 01:02:28;;;;;;;18.52;5.70;;;9.30;99.90;;;;;;5059342;28;20041;-58
2023/05/02 01:05:16;;;;;;;19.08;5.60;;;9.30;99.90;;;;;;5049404;28;20053;-57
2023/05/02 01:08:07;;;;;;;12.63;4.25;;;9.40;99.90;;;;;;5058222;28;20049;-57
2023/05/02 01:10:47;;;;;;;15.00;4.45;;;9.20;99.90;;;;;;5058887;28;20053;-57
2023/05/02 01:13:44;;;;;;;16.83;4.38;;;9.20;99.90;;;;;;5056562;28;20137;-57
2023/05/02 01:16:13;;;;;;;13.57;4.88;;;9.20;99.90;;;;;;5046018;28;20459;-58
2023/05/02 01:18:41;;;;;;;15.02;4.32;;;8.90;99.90;;;;;;5058742;28;20041;-57
2023/05/02 01:21:09;;;;;;;17.45;5.60;;;9.00;99.90;;;;;;5057880;28;20109;-57
2023/05/02 01:23:40;;;;;;;15.23;3.90;;;9.00;99.90;;;;;;5059187;28;20040;-57
2023/05/02 01:26:11;;;;;;;18.70;4.32;;;9.00;99.90;;;;;;5057559;28;20073;-57
2023/05/02 01:29:10;;;;;;;18.23;3.78;;;8.90;99.90;;;;;;5062570;28;20080;-58
2023/05/02 01:31:40;;;;;;;20.05;4.00;;;8.90;99.90;;;;;;5029121;28;20091;-56
2023/05/02 01:34:12;;;;;;;15.40;4.50;;;9.00;99.90;;;;;;5061591;28;20094;-58
2023/05/02 01:36:42;;;;;;;19.00;4.40;;;8.80;99.90;;;;;;5063280;28;20073;-57
2023/05/02 01:39:10;;;;;;;20.20;4.05;;;9.00;99.90;;;;;;5061296;28;20045;-57
2023/05/02 01:41:38;;;;;;;15.02;3.80;;;8.90;99.90;;;;;;5062661;28;20308;-57
2023/05/02 01:44:06;;;;;;;13.50;3.75;;;8.80;99.90;;;;;;5053133;28;20038;-56
2023/05/02 01:46:36;;;;;;;16.15;3.85;;;8.90;99.90;;;;;;5044517;28;20068;-57
2023/05/02 01:49:06;;;;;;;17.02;3.97;;;8.90;99.90;;;;;;5050356;28;20078;-58
2023/05/02 01:51:34;;;;;;;16.25;3.70;;;8.80;99.90;;;;;;5059606;28;20049;-57
2023/05/02 01:54:07;;;;;;;14.57;3.83;;;8.70;99.90;;;;;;5062894;28;20041;-57
2023/05/02 01:56:35;;;;;;;22.42;4.57;;;8.80;99.90;;;;;;5059863;28;20064;-57
2023/05/02 01:59:07;;;;;;;24.17;4.63;;;8.60;99.90;;;;;;5062004;28;20057;-58
2023/05/02 02:01:35;;;;;;;23.75;5.00;;;8.60;99.90;;;;;;5062052;28;20072;-57
2023/05/02 02:04:03;;;;;;;22.30;4.75;;;8.60;99.90;;;;;;5049395;28;20045;-57
2023/05/02 02:06:28;;;;;;;28.15;5.38;;;8.40;99.90;;;;;;5042466;28;20042;-57
2023/05/02 02:08:54;;;;;;;15.80;4.43;;;8.50;99.90;;;;;;5040736;28;20054;-56
2023/05/02 02:12:02;;;;;;;24.67;5.10;;;8.40;99.90;;;;;;5042298;28;20480;-57
2023/05/02 02:14:34;;;;;;;27.55;5.22;;;8.50;99.90;;;;;;5039232;28;20057;-57
2023/05/02 02:17:02;;;;;;;20.10;4.43;;;8.40;99.90;;;;;;5021804;28;20045;-57
2023/05/02 02:19:29;;;;;;;22.40;5.85;;;8.50;99.90;;;;;;5043980;28;20446;-57
2023/05/02 02:21:57;;;;;;;20.90;4.78;;;8.50;99.90;;;;;;5054556;28;20044;-57
2023/05/02 02:24:24;;;;;;;18.35;4.18;;;8.30;99.90;;;;;;5061929;28;20072;-57
2023/05/02 02:26:51;;;;;;;18.27;4.78;;;8.30;99.90;;;;;;5061165;28;20071;-57
2023/05/02 02:29:16;;;;;;;20.65;5.25;;;8.40;99.90;;;;;;5061160;28;20045;-57
2023/05/02 02:31:42;;;;;;;16.00;4.22;;;8.40;99.90;;;;;;5077009;28;20052;-57
2023/05/02 02:34:08;;;;;;;26.60;4.97;;;8.20;99.90;;;;;;5060322;28;20059;-57
2023/05/02 02:36:50;;;;;;;16.42;4.00;;;8.30;99.90;;;;;;5062100;28;20044;-56
2023/05/02 02:39:40;;;;;;;16.80;3.90;;;8.30;99.90;;;;;;5059330;28;20052;-57
2023/05/02 02:42:21;;;;;;;18.92;4.22;;;8.30;99.90;;;;;;5060754;28;20382;-57
2023/05/02 02:45:18;;;;;;;19.55;4.82;;;8.20;99.90;;;;;;5061698;28;20049;-57
2023/05/02 02:47:53;;;;;;;15.38;3.70;;;8.20;99.90;;;;;;5058203;28;20044;-57
2023/05/02 02:50:34;;;;;;;15.05;3.03;;;8.20;99.90;;;;;;5061113;28;20045;-57
2023/05/02 02:53:04;;;;;;;15.55;4.03;;;8.10;99.90;;;;;;5061242;28;20041;-57
2023/05/02 02:55:52;;;;;;;13.93;3.30;;;8.10;99.90;;;;;;5056515;28;20078;-57
2023/05/02 02:58:20;;;;;;;15.05;3.05;;;8.00;99.90;;;;;;5061655;28;20061;-55
2023/05/02 03:00:48;;;;;;;14.63;3.22;;;8.00;99.90;;;;;;5060407;28;20064;-57
2023/05/02 03:03:15;;;;;;;19.30;3.53;;;7.90;99.90;;;;;;5061005;28;20041;-57
2023/05/02 03:05:44;;;;;;;13.20;3.08;;;7.90;99.90;;;;;;5060864;28;20049;-57
2023/05/02 03:08:10;;;;;;;14.45;3.53;;;8.00;99.90;;;;;;5059699;28;20047;-57
2023/05/02 03:10:36;;;;;;;17.08;3.42;;;8.00;99.90;;;;;;5060834;28;20066;-56
2023/05/02 03:13:01;;;;;;;14.63;2.72;;;8.00;99.90;;;;;;5059869;28;20033;-57
2023/05/02 03:16:05;;;;;;;12.63;2.45;;;8.00;99.90;;;;;;5052934;28;20061;-57
2023/05/02 03:18:32;;;;;;;11.43;2.33;;;7.90;99.90;;;;;;5043560;28;20044;-57
2023/05/02 03:20:58;;;;;;;12.63;3.38;;;7.90;99.90;;;;;;5039675;28;20132;-58
2023/05/02 03:23:23;;;;;;;13.98;2.88;;;7.80;99.90;;;;;;5041087;28;20045;-57
2023/05/02 03:25:49;;;;;;;15.45;3.08;;;7.80;99.90;;;;;;5039258;28;20124;-56
2023/05/02 03:28:15;;;;;;;13.13;2.67;;;7.80;99.90;;;;;;5041245;28;20097;-57
2023/05/02 03:30:41;;;;;;;11.50;2.22;;;7.80;99.90;;;;;;5040035;28;20084;-57
2023/05/02 03:33:07;;;;;;;15.35;2.50;;;7.80;99.90;;;;;;5056552;28;20073;-57
2023/05/02 03:35:33;;;;;;;13.35;2.72;;;7.70;99.90;;;;;;5054936;28;20045;-56
2023/05/02 03:37:59;;;;;;;9.20;2.45;;;7.80;99.90;;;;;;5039471;28;20052;-56
2023/05/02 03:40:26;;;;;;;12.90;3.10;;;7.80;99.90;;;;;;5040468;28;20038;-57
2023/05/02 03:42:52;;;;;;;8.25;2.42;;;7.70;99.90;;;;;;5041558;28;20089;-57
2023/05/02 03:45:17;;;;;;;9.73;2.70;;;7.70;99.90;;;;;;5040578;28;20049;-57
2023/05/02 03:47:43;;;;;;;8.00;1.95;;;7.70;99.90;;;;;;5051281;28;20089;-57
2023/05/02 03:50:09;;;;;;;10.80;2.17;;;7.70;99.90;;;;;;5059675;28;20048;-57
2023/05/02 03:52:35;;;;;;;10.10;2.60;;;7.60;99.90;;;;;;5059516;28;20037;-57
2023/05/02 03:55:01;;;;;;;8.52;1.90;;;7.70;99.90;;;;;;5057767;28;20073;-57
2023/05/02 03:57:29;;;;;;;13.13;2.00;;;7.50;99.90;;;;;;5060020;28;20048;-57
2023/05/02 03:59:55;;;;;;;7.05;1.85;;;7.50;99.90;;;;;;5056944;28;20278;-56
2023/05/02 04:02:20;;;;;;;12.15;2.38;;;7.60;99.90;;;;;;5060489;28;20104;-56
2023/05/02 04:04:46;;;;;;;9.50;1.90;;;7.50;99.90;;;;;;5058489;28;20045;-57
2023/05/02 04:07:17;;;;;;;9.63;2.13;;;7.50;99.90;;;;;;5059955;28;20134;-57
2023/05/02 04:09:43;;;;;;;11.27;1.90;;;7.50;99.90;;;;;;5059099;28;20083;-57
2023/05/02 04:12:08;;;;;;;12.27;2.05;;;7.50;99.90;;;;;;5057598;28;20045;-57
2023/05/02 04:14:34;;;;;;;10.98;2.28;;;7.50;99.90;;;;;;5060111;28;20048;-57
2023/05/02 04:17:00;;;;;;;9.55;2.15;;;7.40;99.90;;;;;;5057957;28;20049;-56
2023/05/02 04:19:26;;;;;;;9.18;2.00;;;7.40;99.90;;;;;;5059994;28;20576;-56
2023/05/02 04:21:52;;;;;;;10.40;1.85;;;7.40;99.90;;;;;;5058596;28;20051;-57
2023/05/02 04:24:17;;;;;;;12.63;2.58;;;7.40;99.90;;;;;;5059647;28;20077;-57
2023/05/02 04:26:45;;;;;;;12.43;2.30;;;7.40;99.90;;;;;;5058969;28;20095;-57
2023/05/02 04:29:10;;;;;;;10.32;2.25;;;7.40;99.90;;;;;;5059003;28;20041;-57
2023/05/02 04:31:36;;;;;;;6.88;2.10;;;7.40;99.90;;;;;;5059598;28;20056;-56
2023/05/02 04:34:03;;;;;;;12.30;2.13;;;7.30;99.90;;;;;;5058115;28;20064;-56
2023/05/02 04:36:28;;;;;;;13.27;2.22;;;7.40;99.90;;;;;;5059866;28;20057;-57
2023/05/02 04:38:54;;;;;;;7.28;1.90;;;7.40;99.90;;;;;;5057853;28;20041;-57
2023/05/02 04:41:20;;;;;;;9.93;2.25;;;7.50;99.90;;;;;;5059551;28;20071;-56
2023/05/02 04:43:46;;;;;;;10.75;2.42;;;7.40;99.90;;;;;;5058798;28;20040;-56
2023/05/02 04:46:11;;;;;;;9.52;2.80;;;7.50;99.90;;;;;;5058810;28;20081;-57
2023/05/02 04:48:40;;;;;;;12.27;2.75;;;7.50;99.90;;;;;;5058917;28;20057;-56
2023/05/02 04:51:08;;;;;;;12.95;2.30;;;7.50;99.90;;;;;;5058138;28;20049;-58
2023/05/02 04:53:34;;;;;;;7.82;2.10;;;7.40;99.90;;;;;;5059388;28;20420;-55
2023/05/02 04:55:59;;;;;;;9.48;2.50;;;7.50;99.90;;;;;;5057733;28;20037;-56
2023/05/02 04:58:25;;;;;;;14.27;3.03;;;7.50;99.90;;;;;;5057872;28;20079;-57
2023/05/02 05:00:51;;;;;;;11.73;3.20;;;7.50;99.90;;;;;;5057071;28;20049;-57
2023/05/02 05:03:17;;;;;;;12.75;2.88;;;7.50;99.90;;;;;;5058068;28;20056;-57
2023/05/02 05:05:42;;;;;;;9.20;2.40;;;7.40;99.90;;;;;;5058837;28;20128;-57
2023/05/02 05:08:08;;;;;;;11.18;2.20;;;7.40;99.90;;;;;;5057842;28;20037;-56
2023/05/02 05:10:34;;;;;;;9.68;2.53;;;7.40;99.90;;;;;;5059012;28;20091;-56
2023/05/02 05:13:00;;;;;;;10.73;2.60;;;7.40;99.90;;;;;;5056070;28;20477;-57
2023/05/02 05:15:26;;;;;;;14.50;2.75;;;7.50;99.90;;;;;;5055302;28;20048;-56
2023/05/02 05:17:51;;;;;;;8.23;2.72;;;7.40;99.90;;;;;;5053839;28;20931;-56
2023/05/02 05:20:18;;;;;;;12.50;2.38;;;7.40;99.90;;;;;;5054617;28;20045;-57
2023/05/02 05:22:44;;;;;;;14.63;2.63;;;7.40;99.90;;;;;;5054689;28;20052;-55
2023/05/02 05:25:10;;;;;;;8.35;2.25;;;7.50;99.90;;;;;;5052529;28;20601;-56
2023/05/02 05:27:36;;;;;;;12.38;2.83;;;7.40;99.90;;;;;;5054770;28;20044;-57
2023/05/02 05:30:07;;;;;;;8.63;2.58;;;7.40;99.90;;;;;;5053466;28;20045;-57
2023/05/02 05:32:34;;;;;;;11.50;2.92;;;7.50;99.90;;;;;;5054746;28;20076;-57
2023/05/02 05:35:00;;;;;;;9.45;2.63;;;7.50;99.90;;;;;;5054552;28;20124;-57
2023/05/02 05:37:26;;;;;;;15.05;2.72;;;7.50;99.90;;;;;;5054451;28;20041;-56
2023/05/02 05:39:51;;;;;;;12.70;2.97;;;7.60;99.90;;;;;;5053815;28;20102;-57
2023/05/02 05:42:17;;;;;;;10.93;2.50;;;7.50;99.90;;;;;;5052584;28;20052;-57
2023/05/02 05:44:43;;;;;;;15.50;3.03;;;7.50;99.90;;;;;;5054892;28;20045;-57
2023/05/02 05:47:09;;;;;;;14.40;3.03;;;7.60;99.90;;;;;;5053441;28;20033;-57
2023/05/02 05:49:35;;;;;;;12.65;3.05;;;7.60;99.90;;;;;;5055030;28;20090;-56
2023/05/02 05:52:01;;;;;;;9.43;2.78;;;7.50;99.90;;;;;;5053289;28;20175;-57
2023/05/02 05:54:27;;;;;;;11.13;2.83;;;7.50;99.90;;;;;;5054212;28;20056;-57
2023/05/02 05:56:53;;;;;;;13.52;2.83;;;7.60;99.90;;;;;;5054449;28;20301;-57
2023/05/02 05:59:19;;;;;;;10.15;2.33;;;7.60;99.90;;;;;;5053870;28;20076;-57
2023/05/02 06:01:45;;;;;;;9.20;2.20;;;7.60;99.90;;;;;;5055041;28;20059;-57
2023/05/02 06:04:10;;;;;;;13.50;2.72;;;7.70;99.90;;;;;;5052926;28;20104;-56
2023/05/02 06:06:38;;;;;;;12.43;3.05;;;7.70;99.90;;;;;;5055238;28;20048;-57
2023/05/02 06:09:04;;;;;;;11.48;2.65;;;7.80;99.90;;;;;;5053375;28;20063;-56
2023/05/02 06:11:30;;;;;;;10.15;2.80;;;7.90;99.90;;;;;;5054547;28;20041;-57
2023/05/02 06:13:56;;;;;;;8.13;2.75;;;7.70;99.90;;;;;;5054610;28;20047;-57
2023/05/02 06:16:21;;;;;;;14.95;3.00;;;7.80;99.90;;;;;;5044037;28;20521;-56
2023/05/02 06:18:50;;;;;;;11.13;2.92;;;7.80;99.90;;;;;;5037733;28;20045;-56
2023/05/02 06:21:16;;;;;;;10.65;3.13;;;7.80;99.90;;;;;;5036667;28;20049;-57
2023/05/02 06:23:41;;;;;;;10.95;2.85;;;7.80;99.90;;;;;;5038268;28;20195;-57
2023/05/02 06:26:08;;;;;;;13.48;3.22;;;7.80;99.90;;;;;;5035825;28;20355;-57
2023/05/02 06:28:34;;;;;;;9.13;2.55;;;7.70;99.90;;;;;;5037813;28;20311;-57
2023/05/02 06:31:02;;;;;;;11.25;3.38;;;7.80;99.90;;;;;;5052885;28;20400;-57
2023/05/02 06:33:28;;;;;;;10.13;2.67;;;7.60;99.90;;;;;;5036974;28;20041;-58
2023/05/02 06:35:54;;;;;;;10.20;2.75;;;7.80;99.90;;;;;;5037567;28;20076;-57
2023/05/02 06:38:20;;;;;;;9.18;2.22;;;7.70;99.90;;;;;;5035695;28;20044;-58
2023/05/02 06:40:46;;;;;;;8.38;2.13;;;7.70;99.90;;;;;;5037659;28;20057;-56
2023/05/02 06:43:12;;;;;;;8.00;2.25;;;7.70;99.90;;;;;;5035732;28;20129;-56
2023/05/02 06:45:39;;;;;;;10.90;2.40;;;7.80;99.90;;;;;;5048509;28;20053;-58
2023/05/02 06:48:05;;;;;;;13.13;2.13;;;7.90;99.90;;;;;;5052926;28;20044;-58
2023/05/02 06:50:32;;;;;;;9.02;2.38;;;7.80;99.90;;;;;;5049450;28;20041;-57
2023/05/02 06:52:57;;;;;;;7.85;2.17;;;7.90;99.90;;;;;;5056979;28;20041;-56
2023/05/02 06:55:23;;;;;;;10.27;2.65;;;7.90;99.90;;;;;;5056142;28;20503;-56
2023/05/02 06:57:49;;;;;;;9.82;2.25;;;8.00;99.90;;;;;;5056945;28;20115;-57
2023/05/02 07:00:16;;;;;;;11.77;2.58;;;8.00;99.90;;;;;;5056073;28;20128;-57
2023/05/02 07:02:43;;;;;;;10.88;2.90;;;8.00;99.90;;;;;;5060801;28;20052;-56
2023/05/02 07:05:09;;;;;;;10.48;2.55;;;8.00;99.90;;;;;;5052799;28;20555;-56
2023/05/02 07:07:35;;;;;;;7.25;2.67;;;8.10;99.90;;;;;;5050546;28;20045;-57
2023/05/02 07:10:02;;;;;;;8.90;2.38;;;8.00;99.90;;;;;;5041482;28;20049;-56
2023/05/02 07:12:27;;;;;;;12.32;2.60;;;8.00;99.90;;;;;;5038703;28;20732;-57
2023/05/02 07:14:53;;;;;;;12.70;3.05;;;8.00;99.90;;;;;;5040094;28;20042;-56
2023/05/02 07:17:19;;;;;;;12.05;2.72;;;8.10;99.90;;;;;;5037449;28;20052;-57
2023/05/02 07:19:44;;;;;;;8.48;2.70;;;8.00;99.90;;;;;;5040321;28;20052;-57
2023/05/02 07:22:10;;;;;;;12.48;2.70;;;8.00;99.90;;;;;;5038635;28;20053;-56
2023/05/02 07:24:40;;;;;;;12.60;3.20;;;8.00;99.90;;;;;;5039607;28;20072;-58
2023/05/02 07:27:07;;;;;;;8.13;2.78;;;8.00;99.90;;;;;;5040525;28;20061;-57
2023/05/02 07:29:33;;;;;;;12.15;3.13;;;7.90;99.90;;;;;;5039380;28;20037;-57
2023/05/02 07:31:59;;;;;;;12.77;2.65;;;8.00;99.90;;;;;;5040699;28;20075;-57
2023/05/02 07:34:24;;;;;;;7.97;2.20;;;8.00;99.90;;;;;;5039252;28;20086;-57
2023/05/02 07:36:50;;;;;;;9.20;2.33;;;8.00;99.90;;;;;;5040816;28;20077;-57
2023/05/02 07:39:15;;;;;;;9.68;2.83;;;8.00;99.90;;;;;;5039294;28;20079;-57
2023/05/02 07:41:41;;;;;;;10.68;2.25;;;8.10;99.90;;;;;;5038666;28;20242;-57
2023/05/02 07:44:07;;;;;;;8.23;2.20;;;8.10;99.90;;;;;;5040137;28;20096;-57
2023/05/02 07:46:32;;;;;;;9.93;1.83;;;8.20;99.90;;;;;;5042100;28;20037;-57
2023/05/02 07:48:58;;;;;;;6.20;1.77;;;8.10;99.90;;;;;;5060256;28;20056;-57
2023/05/02 07:51:25;;;;;;;7.43;1.90;;;8.10;99.90;;;;;;5058594;28;20049;-57
2023/05/02 07:53:57;;;;;;;5.47;1.70;;;8.30;99.90;;;;;;5056203;28;20056;-57
2023/05/02 07:56:24;;;;;;;7.70;1.77;;;8.40;99.90;;;;;;5055074;28;20045;-57
2023/05/02 07:58:52;;;;;;;7.82;2.00;;;8.40;99.90;;;;;;5055790;28;20539;-57
2023/05/02 08:01:18;;;;;;;9.43;1.90;;;8.40;99.90;;;;;;5055888;28;20076;-55
2023/05/02 08:03:44;;;;;;;5.30;1.45;;;8.50;99.90;;;;;;5055413;28;20044;-57
2023/05/02 08:06:10;;;;;;;7.75;1.80;;;8.40;99.90;;;;;;5054809;28;20514;-57
2023/05/02 08:08:36;;;;;;;6.82;1.90;;;8.60;99.90;;;;;;5054061;28;20037;-57
2023/05/02 08:11:02;;;;;;;7.00;1.80;;;8.60;99.90;;;;;;5056190;28;20064;-58
2023/05/02 08:13:28;;;;;;;8.18;2.20;;;8.60;99.90;;;;;;5055045;28;20041;-58
2023/05/02 08:15:57;;;;;;;5.43;1.90;;;8.60;99.90;;;;;;5054913;28;20049;-57
2023/05/02 08:18:26;;;;;;;7.07;1.77;;;8.70;99.90;;;;;;5054770;28;20146;-57
2023/05/02 08:20:57;;;;;;;6.65;1.90;;;8.80;99.90;;;;;;5054303;28;20049;-57
2023/05/02 08:23:23;;;;;;;9.10;2.00;;;8.80;99.90;;;;;;5055884;28;20044;-57
2023/05/02 08:25:48;;;;;;;10.30;1.85;;;8.80;99.90;;;;;;5053005;28;20052;-55
2023/05/02 08:28:14;;;;;;;9.85;2.15;;;9.10;99.90;;;;;;5056131;28;20133;-58
2023/05/02 08:30:40;;;;;;;5.93;1.60;;;9.10;99.90;;;;;;5045376;28;20107;-57
2023/05/02 08:33:06;;;;;;;8.88;1.60;;;9.30;99.90;;;;;;5042121;28;20045;-57
2023/05/02 08:35:32;;;;;;;4.65;1.60;;;9.30;99.90;;;;;;5041626;28;20044;-58
2023/05/02 08:37:57;;;;;;;6.45;1.45;;;9.20;99.90;;;;;;5033345;28;20044;-57
2023/05/02 08:40:24;;;;;;;5.78;1.83;;;9.20;99.90;;;;;;5035451;28;20053;-57
2023/05/02 08:42:51;;;;;;;7.45;1.80;;;9.10;99.90;;;;;;5033749;28;20037;-57
2023/05/02 08:45:18;;;;;;;4.78;1.50;;;9.20;99.90;;;;;;5036011;28;20054;-57
2023/05/02 08:47:45;;;;;;;5.20;1.30;;;9.40;99.90;;;;;;5062515;28;20105;-57
2023/05/02 08:50:11;;;;;;;7.95;1.50;;;9.40;99.90;;;;;;5056125;28;20100;-57
2023/05/02 08:52:37;;;;;;;5.13;1.30;;;9.50;99.90;;;;;;5054853;28;20123;-57
2023/05/02 08:55:06;;;;;;;5.10;1.40;;;9.50;99.90;;;;;;5053950;28;20051;-57
2023/05/02 08:57:32;;;;;;;6.85;1.35;;;9.50;99.90;;;;;;5055154;28;20814;-57
2023/05/02 08:59:58;;;;;;;5.75;1.35;;;9.60;99.90;;;;;;5053816;28;20061;-57
2023/05/02 09:02:33;;;;;;;6.72;1.20;;;9.50;99.90;;;;;;5054241;28;20041;-57
2023/05/02 09:05:06;;;;;;;5.85;1.40;;;9.40;99.90;;;;;;5052211;28;20105;-56
2023/05/02 09:07:46;;;;;;;6.53;1.50;;;9.40;99.90;;;;;;5054667;28;20044;-57
2023/05/02 09:10:13;;;;;;;5.10;1.27;;;9.30;99.90;;;;;;5053780;28;20126;-57
2023/05/02 09:12:39;;;;;;;5.78;1.20;;;9.40;99.90;;;;;;5053548;28;20044;-57
2023/05/02 09:15:08;;;;;;;5.53;1.30;;;9.60;99.90;;;;;;5055531;28;20127;-57
2023/05/02 09:17:45;;;;;;;6.15;1.40;;;9.50;99.90;;;;;;5053443;28;20076;-57
2023/05/02 09:20:13;;;;;;;5.38;1.27;;;9.40;99.90;;;;;;5054933;28;20080;-58
2023/05/02 09:22:46;;;;;;;7.32;1.42;;;9.50;99.90;;;;;;5054634;28;20041;-56
2023/05/02 09:25:11;;;;;;;5.82;1.85;;;10.00;99.90;;;;;;5054180;28;20044;-57
2023/05/02 09:27:54;;;;;;;4.22;1.00;;;10.10;99.90;;;;;;5055019;28;20105;-56
2023/05/02 09:30:20;;;;;;;3.60;0.85;;;9.80;99.90;;;;;;5053328;28;20060;-57
2023/05/02 09:32:49;;;;;;;2.28;0.90;;;9.50;99.90;;;;;;5054807;28;20115;-57
2023/05/02 09:35:22;;;;;;;5.75;1.20;;;9.60;99.90;;;;;;5053797;28;20052;-56
2023/05/02 09:37:50;;;;;;;3.92;1.25;;;9.50;99.90;;;;;;5051604;28;20052;-57
2023/05/02 09:40:16;;;;;;;7.38;1.30;;;9.50;99.90;;;;;;5054363;28;20045;-57
2023/05/02 09:42:42;;;;;;;5.88;1.27;;;9.50;99.90;;;;;;5052932;28;20055;-58
2023/05/02 09:45:08;;;;;;;4.72;1.38;;;9.60;99.90;;;;;;5055086;28;20041;-57
2023/05/02 09:47:35;;;;;;;6.00;1.30;;;10.00;99.90;;;;;;5053607;28;20075;-57
2023/05/02 09:50:02;;;;;;;4.32;1.30;;;10.00;99.90;;;;;;5058338;28;20136;-57
2023/05/02 09:52:28;;;;;;;6.18;1.35;;;9.60;99.90;;;;;;5054580;28;20045;-57
2023/05/02 09:54:55;;;;;;;5.30;1.60;;;9.20;99.90;;;;;;5047485;28;20059;-58
2023/05/02 09:57:22;;;;;;;5.43;1.30;;;9.10;99.90;;;;;;5048743;28;20100;-58
2023/05/02 09:59:57;;;;;;;4.85;1.23;;;9.00;99.90;;;;;;5052571;28;20612;-57
2023/05/02 10:02:31;;;;;;;4.78;1.20;;;9.20;99.90;;;;;;5058582;28;20645;-57
2023/05/02 10:04:58;;;;;;;5.25;1.02;;;9.30;99.90;;;;;;5057581;28;20103;-56
2023/05/02 10:07:25;;;;;;;7.10;1.80;;;9.30;99.90;;;;;;5057535;28;20111;-57
2023/05/02 10:09:53;;;;;;;3.97;1.20;;;9.40;99.90;;;;;;5073379;28;20049;-57
2023/05/02 10:12:22;;;;;;;6.47;1.20;;;9.30;99.90;;;;;;5057026;28;20045;-58
2023/05/02 10:14:57;;;;;;;3.40;0.75;;;9.30;99.90;;;;;;5058510;28;20052;-58
2023/05/02 10:17:41;;;;;;;4.07;1.10;;;9.20;99.90;;;;;;5056692;28;20049;-58
2023/05/02 10:20:07;;;;;;;3.90;1.00;;;9.00;99.90;;;;;;5058072;28;20135;-57
2023/05/02 10:22:34;;;;;;;6.10;1.35;;;9.80;99.90;;;;;;5057584;28;20095;-59
2023/05/02 10:25:02;;;;;;;4.72;1.13;;;9.70;99.90;;;;;;5055445;28;20049;-57
2023/05/02 10:27:31;;;;;;;4.85;1.10;;;9.60;99.90;;;;;;5057870;28;20041;-58
2023/05/02 10:29:58;;;;;;;2.70;0.95;;;9.60;99.90;;;;;;5056340;28;20056;-57
2023/05/02 10:32:27;;;;;;;5.10;1.48;;;9.80;99.90;;;;;;5058332;28;20195;-58
2023/05/02 10:34:56;;;;;;;6.72;1.83;;;9.60;99.90;;;;;;5073915;28;20045;-58
2023/05/02 10:37:24;;;;;;;5.35;1.20;;;9.80;99.90;;;;;;5060372;28;20075;-57
2023/05/02 10:39:50;;;;;;;5.30;1.10;;;9.80;99.90;;;;;;5059123;28;20053;-57
2023/05/02 10:42:18;;;;;;;5.07;1.65;;;10.10;99.90;;;;;;5060572;28;20068;-58
2023/05/02 10:44:44;;;;;;;4.35;1.10;;;9.80;99.90;;;;;;5061693;28;20049;-57
2023/05/02 10:47:29;;;;;;;3.42;1.00;;;9.70;99.90;;;;;;5060255;28;20604;-57
2023/05/02 10:49:57;;;;;;;5.40;1.20;;;9.50;99.90;;;;;;5061440;28;20045;-57
2023/05/02 10:52:32;;;;;;;5.78;1.35;;;9.30;99.90;;;;;;5060963;28;20045;-57
2023/05/02 10:55:20;;;;;;;4.40;1.00;;;9.50;99.90;;;;;;5058307;28;20049;-57
2023/05/02 10:58:05;;;;;;;6.18;1.20;;;9.40;99.90;;;;;;5061227;28;20069;-57
2023/05/02 11:00:32;;;;;;;7.63;1.15;;;9.40;99.90;;;;;;5058871;28;20151;-57
2023/05/02 11:02:58;;;;;;;3.72;1.10;;;9.50;99.90;;;;;;5060205;28;20032;-57
2023/05/02 11:05:26;;;;;;;9.90;1.40;;;9.40;99.90;;;;;;5059028;28;20104;-57
2023/05/02 11:08:16;;;;;;;5.70;1.10;;;9.50;99.90;;;;;;5059389;28;20061;-57
2023/05/02 11:10:44;;;;;;;4.93;1.10;;;9.50;99.90;;;;;;5058913;28;20131;-57
2023/05/02 11:13:10;;;;;;;6.93;1.10;;;9.50;99.90;;;;;;5059410;28;20076;-57
2023/05/02 11:15:39;;;;;;;5.85;1.00;;;9.30;99.90;;;;;;5059456;28;20069;-57
2023/05/02 11:18:12;;;;;;;8.02;2.03;;;9.60;99.90;;;;;;5060310;28;20048;-56
2023/05/02 11:20:39;;;;;;;3.47;0.90;;;9.90;99.90;;;;;;5057951;28;20048;-56
2023/05/02 11:23:14;;;;;;;3.47;1.00;;;10.30;99.90;;;;;;5060740;28;20056;-57
2023/05/02 11:25:44;;;;;;;4.35;1.23;;;10.30;99.90;;;;;;5059336;28;20047;-56
2023/05/02 11:28:46;;;;;;;2.80;0.98;;;10.80;99.90;;;;;;5060742;28;20049;-56
2023/05/02 11:31:27;;;;;;;6.13;1.05;;;10.50;99.90;;;;;;5058770;28;20055;-57
2023/05/02 11:33:57;;;;;;;1.73;0.70;;;10.30;99.90;;;;;;5059195;28;20084;-56
2023/05/02 11:36:33;;;;;;;3.03;0.80;;;10.50;99.90;;;;;;5060687;28;20049;-56
2023/05/02 11:39:04;;;;;;;3.50;0.75;;;10.60;99.90;;;;;;5059093;28;20048;-56
2023/05/02 11:41:42;;;;;;;2.07;0.73;;;11.00;99.90;;;;;;5060196;28;20100;-57
2023/05/02 11:44:08;;;;;;;3.15;0.90;;;10.90;99.90;;;;;;5060200;28;20500;-57
2023/05/02 11:46:38;;;;;;;3.35;0.73;;;10.60;99.90;;;;;;5059074;28;20045;-57
2023/05/02 11:49:05;;;;;;;5.15;1.30;;;10.60;99.90;;;;;;5060586;28;20045;-56
2023/05/02 11:51:31;;;;;;;5.22;1.52;;;10.80;99.90;;;;;;5058677;28;20026;-57
2023/05/02 11:53:56;;;;;;;5.85;1.00;;;10.20;99.90;;;;;;5060046;28;20044;-57
2023/05/02 11:56:23;;;;;;;2.00;0.80;;;10.30;99.90;;;;;;5059048;28;20049;-57
2023/05/02 11:58:59;;;;;;;4.70;1.00;;;10.50;99.90;;;;;;5058971;28;20107;-57
2023/05/02 12:01:25;;;;;;;3.20;0.82;;;10.60;99.90;;;;;;5059802;28;20033;-57
2023/05/02 12:04:05;;;;;;;3.25;0.88;;;10.30;99.90;;;;;;5058392;28;20074;-57
2023/05/02 12:06:32;;;;;;;1.88;0.52;;;10.50;99.90;;;;;;5058710;28;20073;-56
2023/05/02 12:09:12;;;;;;;1.63;0.70;;;10.70;99.90;;;;;;5057803;28;20087;-57
2023/05/02 12:11:38;;;;;;;2.17;0.50;;;10.60;99.90;;;;;;5058392;28;20052;-59
2023/05/02 12:14:05;;;;;;;2.50;0.60;;;10.80;99.90;;;;;;5059322;28;20040;-57
2023/05/02 12:16:31;;;;;;;3.67;0.65;;;10.80;99.90;;;;;;5058465;28;20044;-57
2023/05/02 12:18:59;;;;;;;0.52;0.45;;;10.50;99.90;;;;;;5059407;28;20041;-57
2023/05/02 12:21:28;;;;;;;1.75;0.55;;;10.60;99.90;;;;;;5058093;28;20100;-57
2023/05/02 12:23:55;;;;;;;2.50;0.73;;;10.60;99.90;;;;;;5059409;28;20048;-57
2023/05/02 12:26:29;;;;;;;2.58;0.70;;;10.60;99.90;;;;;;5058311;28;20044;-57
2023/05/02 12:28:57;;;;;;;1.70;0.50;;;10.70;99.90;;;;;;5057047;28;20121;-57
2023/05/02 12:31:22;;;;;;;3.03;0.65;;;10.80;99.90;;;;;;5058832;28;20046;-56
2023/05/02 12:33:49;;;;;;;1.30;0.55;;;11.10;99.90;;;;;;5057751;28;20102;-57
2023/05/02 12:36:16;;;;;;;2.97;0.73;;;11.40;99.90;;;;;;5057264;28;20079;-57
2023/05/02 12:38:53;;;;;;;2.13;0.60;;;11.20;99.90;;;;;;5053512;28;20053;-57
2023/05/02 12:41:33;;;;;;;3.55;0.65;;;11.60;99.90;;;;;;5054139;28;20084;-57
2023/05/02 12:43:59;;;;;;;5.10;0.85;;;11.80;99.90;;;;;;5054549;28;20734;-57
2023/05/02 12:46:27;;;;;;;4.30;0.93;;;11.50;99.90;;;;;;5053960;28;20041;-57
2023/05/02 12:49:10;;;;;;;5.68;1.10;;;11.20;99.90;;;;;;5054624;28;20061;-57
2023/05/02 12:51:38;;;;;;;3.97;0.93;;;11.10;99.90;;;;;;5053668;28;20049;-57
2023/05/02 12:54:04;;;;;;;6.57;1.10;;;10.90;99.90;;;;;;5054722;28;20100;-57
2023/05/02 12:56:37;;;;;;;5.15;1.00;;;10.70;99.90;;;;;;5054394;28;20053;-57
2023/05/02 12:59:04;;;;;;;4.70;0.90;;;10.50;99.90;;;;;;5048741;28;20091;-57